Terminal Aerodrome Forecast
Issued by NWS Sioux Falls, SD

Home | Current Version | Previous Version | Graphics & Text | Print | Product List | Glossary On
Versions: 1 2 3 4 5 6 7 8 9 10 11 12 13 14 15
000
FTUS43 KFSD 180525
TAFHON
TAF
KHON 180525Z 1806/1906 06009KT P6SM SCT150 SCT250
     FM181100 01007KT 5SM -SN OVC025
     FM181300 34009KT 1 1/2SM -SN OVC008
     FM181600 34009KT 3SM -SNRA OVC010
     FM181800 33010KT P6SM OVC015
     FM182300 34011KT P6SM BKN030=

USA.gov is the U.S. government's official web portal to all federal, state and local government web resources and services.